Time;durP1;ratioP1;P1;durP2;ratioP2;P2;SDS_P1;SDS_P2;PMS_P1;PMS_P2;Temp;Humidity;BMP_temperature;BMP_pressure;BME280_temperature;BME280_humidity;BME280_pressure;Samples;Min_cycle;Max_cycle;Signal;HPM_P1;HPM_P2
2022/10/31 00:01:30;;;;;;;;;;;;;;;20.57;64.21;101188.63;7408843;19;1595;-68
2022/10/31 00:03:58;;;;;;;;;;;;;;;20.54;64.35;101176.34;7408281;19;1664;-68
2022/10/31 00:06:30;;;;;;;;;;;;;;;20.58;64.41;101172.38;7406457;19;1485;-68
2022/10/31 00:08:59;;;;;;;;;;;;;;;20.57;64.20;101173.41;7407352;19;1614;-68
2022/10/31 00:11:27;;;;;;;;;;;;;;;20.55;64.37;101180.75;7407541;19;1518;-68
2022/10/31 00:13:56;;;;;;;;;;;;;;;20.55;64.33;101180.75;7408212;19;1526;-68
2022/10/31 00:16:26;;;;;;;;;;;;;;;20.57;64.30;101199.38;7408654;19;1523;-68
2022/10/31 00:18:55;;;;;;;;;;;;;;;20.55;64.08;101191.50;7405425;19;1876;-68
2022/10/31 00:21:24;;;;;;;;;;;;;;;20.54;64.65;101178.19;7407456;19;1763;-68
2022/10/31 00:23:55;;;;;;;;;;;;;;;20.55;64.23;101186.13;7408156;19;1603;-68
2022/10/31 00:26:23;;;;;;;;;;;;;;;20.56;64.13;101195.84;7405355;19;1333;-68
2022/10/31 00:28:51;;;;;;;;;;;;;;;20.53;63.92;101177.34;7406365;19;1628;-68
2022/10/31 00:31:20;;;;;;;;;;;;;;;20.54;64.17;101180.88;7406845;19;999;-68
2022/10/31 00:33:48;;;;;;;;;;;;;;;20.52;64.26;101174.78;7407174;19;1638;-68
2022/10/31 00:36:17;;;;;;;;;;;;;;;20.54;64.42;101187.09;7407516;19;1624;-68
2022/10/31 00:38:46;;;;;;;;;;;;;;;20.51;64.23;101195.41;7405886;19;1842;-67
2022/10/31 00:41:18;;;;;;;;;;;;;;;20.52;64.50;101189.06;7406365;19;1522;-68
2022/10/31 00:43:46;;;;;;;;;;;;;;;20.51;63.94;101199.94;7405272;19;1505;-68
2022/10/31 00:46:15;;;;;;;;;;;;;;;20.51;63.81;101198.09;7405604;19;1138;-68
2022/10/31 00:48:43;;;;;;;;;;;;;;;20.54;63.86;101195.16;7405384;19;1414;-68
2022/10/31 00:51:12;;;;;;;;;;;;;;;20.54;63.67;101197.84;7406218;19;1285;-68
2022/10/31 00:53:40;;;;;;;;;;;;;;;20.55;63.73;101191.50;7405545;19;1422;-68
2022/10/31 00:56:09;;;;;;;;;;;;;;;20.55;63.54;101196.84;7403263;19;1516;-68
2022/10/31 00:58:40;;;;;;;;;;;;;;;20.55;63.73;101201.34;7402416;19;1899;-68
2022/10/31 01:01:08;;;;;;;;;;;;;;;20.56;63.88;101211.97;7397121;19;1281;-68
2022/10/31 01:03:38;;;;;;;;;;;;;;;20.55;63.73;101204.06;7404169;19;1583;-68
2022/10/31 01:06:08;;;;;;;;;;;;;;;20.54;63.41;101200.53;7405268;19;1535;-68
2022/10/31 01:08:37;;;;;;;;;;;;;;;20.54;63.72;101199.69;7405351;19;1519;-68
2022/10/31 01:11:08;;;;;;;;;;;;;;;20.54;63.71;101205.88;7406225;19;1657;-68
2022/10/31 01:13:36;;;;;;;;;;;;;;;20.54;63.45;101211.25;7404757;19;1782;-68
2022/10/31 01:16:09;;;;;;;;;;;;;;;20.56;63.56;101205.75;7405085;19;967;-68
2022/10/31 01:18:38;;;;;;;;;;;;;;;20.53;63.51;101206.91;7403860;19;1826;-68
2022/10/31 01:21:07;;;;;;;;;;;;;;;20.54;63.27;101222.00;7404051;19;1597;-68
2022/10/31 01:23:36;;;;;;;;;;;;;;;20.53;63.24;101220.31;7405726;19;1579;-68
2022/10/31 01:26:09;;;;;;;;;;;;;;;20.51;63.48;101208.00;7405263;19;1796;-68
2022/10/31 01:28:38;;;;;;;;;;;;;;;20.55;63.28;101206.72;7404938;19;1531;-68
2022/10/31 01:31:10;;;;;;;;;;;;;;;20.51;63.29;101195.41;7404796;19;987;-68
2022/10/31 01:33:39;;;;;;;;;;;;;;;20.57;63.25;101194.00;7405718;19;1724;-68
2022/10/31 01:36:15;;;;;;;;;;;;;;;20.50;63.10;101182.13;7403468;19;1562;-68
2022/10/31 01:38:44;;;;;;;;;;;;;;;20.52;63.25;101190.91;7403818;19;1888;-68
2022/10/31 01:41:13;;;;;;;;;;;;;;;20.51;63.27;101189.19;7404748;19;1429;-68
2022/10/31 01:43:45;;;;;;;;;;;;;;;20.50;63.51;101187.50;7402627;19;1598;-68
2022/10/31 01:46:18;;;;;;;;;;;;;;;20.50;63.42;101192.88;7403053;19;1480;-68
2022/10/31 01:48:46;;;;;;;;;;;;;;;20.53;63.32;101214.06;7404316;19;1661;-68
2022/10/31 01:51:16;;;;;;;;;;;;;;;20.52;63.04;101207.88;7406100;19;1595;-68
2022/10/31 01:53:45;;;;;;;;;;;;;;;20.49;63.43;101212.66;7404151;19;1692;-68
2022/10/31 01:56:14;;;;;;;;;;;;;;;20.53;63.35;101214.94;7405133;19;1520;-68
2022/10/31 01:58:42;;;;;;;;;;;;;;;20.50;63.14;101220.59;7403106;19;1857;-69
2022/10/31 02:01:10;;;;;;;;;;;;;;;20.52;62.98;101233.88;7405265;19;978;-68
2022/10/31 02:03:42;;;;;;;;;;;;;;;21.20;61.43;101226.06;7401448;19;1673;-68
2022/10/31 02:06:13;;;;;;;;;;;;;;;21.60;60.47;101233.22;7404333;19;1538;-68
2022/10/31 02:08:41;;;;;;;;;;;;;;;21.75;59.72;101237.19;7404312;19;1464;-68
2022/10/31 02:11:10;;;;;;;;;;;;;;;21.34;61.20;101224.81;7402806;19;1641;-68
2022/10/31 02:13:39;;;;;;;;;;;;;;;21.30;61.36;101228.78;7404275;19;1602;-68
2022/10/31 02:16:08;;;;;;;;;;;;;;;21.58;60.43;101233.34;7404294;19;1051;-68
2022/10/31 02:18:36;;;;;;;;;;;;;;;21.95;59.59;101240.72;7403561;19;1830;-68
2022/10/31 02:21:14;;;;;;;;;;;;;;;22.56;58.16;101233.22;7403877;19;1606;-68
2022/10/31 02:24:02;;;;;;;;;;;;;;;22.38;58.35;101233.13;7403718;19;1495;-69
2022/10/31 02:26:43;;;;;;;;;;;;;;;21.72;59.99;101244.69;7403181;19;1602;-68
2022/10/31 02:29:25;;;;;;;;;;;;;;;21.31;61.22;101239.41;7403710;19;1526;-68
2022/10/31 02:31:58;;;;;;;;;;;;;;;21.67;60.45;101242.44;7403534;19;1441;-64
2022/10/31 02:34:29;;;;;;;;;;;;;;;21.88;59.78;101244.13;7404444;19;1598;-64
2022/10/31 02:37:00;;;;;;;;;;;;;;;21.77;60.34;101239.75;7402869;19;1463;-64
2022/10/31 02:39:31;;;;;;;;;;;;;;;21.40;61.25;101243.94;7401824;19;1865;-64
2022/10/31 02:42:05;;;;;;;;;;;;;;;21.64;60.80;101231.94;7402764;19;1472;-64
2022/10/31 02:44:38;;;;;;;;;;;;;;;21.91;59.68;101244.69;7401409;19;1633;-64
2022/10/31 02:47:11;;;;;;;;;;;;;;;21.82;59.79;101241.00;7402127;19;1408;-64
2022/10/31 02:49:42;;;;;;;;;;;;;;;21.52;60.83;101241.16;7401736;19;1440;-64
2022/10/31 02:52:20;;;;;;;;;;;;;;;21.50;61.06;101245.81;7402155;19;1554;-64
2022/10/31 02:54:49;;;;;;;;;;;;;;;21.80;59.90;101237.59;7401875;19;1449;-64
2022/10/31 02:57:19;;;;;;;;;;;;;;;21.94;59.70;101241.69;7402605;19;1514;-64
2022/10/31 02:59:50;;;;;;;;;;;;;;;21.66;60.51;101262.25;7401793;19;1855;-64
2022/10/31 03:02:32;;;;;;;;;;;;;;;21.44;61.18;101253.47;7397690;19;3404;-84
2022/10/31 03:05:10;;;;;;;;;;;;;;;21.76;60.29;101263.09;7406936;19;1695;-84
2022/10/31 03:07:43;;;;;;;;;;;;;;;21.94;59.83;101265.09;7405757;19;1325;-84
2022/10/31 03:10:19;;;;;;;;;;;;;;;21.75;60.20;101261.41;7404269;19;1730;-84
2022/10/31 03:12:52;;;;;;;;;;;;;;;21.48;60.81;101267.47;7403831;19;1498;-84
2022/10/31 03:15:25;;;;;;;;;;;;;;;21.67;60.50;101271.22;7401138;19;1365;-84
2022/10/31 03:18:01;;;;;;;;;;;;;;;21.88;59.91;101269.19;7403341;19;1664;-84
2022/10/31 03:20:33;;;;;;;;;;;;;;;21.99;59.61;101289.75;7404732;19;1483;-84
2022/10/31 03:23:03;;;;;;;;;;;;;;;21.64;60.67;101286.63;7403816;19;1739;-84
2022/10/31 03:25:32;;;;;;;;;;;;;;;21.38;61.16;101283.56;7411866;19;1186;-83
2022/10/31 03:28:01;;;;;;;;;;;;;;;21.66;60.49;101283.78;7411236;19;1862;-84
2022/10/31 03:30:30;;;;;;;;;;;;;;;21.99;60.49;101304.06;7410295;19;1547;-84
2022/10/31 03:33:04;;;;;;;;;;;;;;;21.69;62.88;101286.22;7408696;19;1468;-85
2022/10/31 03:35:35;;;;;;;;;;;;;;;21.54;62.96;101293.00;7412236;19;1688;-84
2022/10/31 03:38:04;;;;;;;;;;;;;;;21.40;63.63;101300.44;7412722;19;1609;-85
2022/10/31 03:40:35;;;;;;;;;;;;;;;21.34;64.64;101290.22;7409407;19;1410;-86
2022/10/31 03:43:08;;;;;;;;;;;;;;;21.31;64.01;101285.13;7408175;19;1265;-86
2022/10/31 03:45:39;;;;;;;;;;;;;;;21.32;64.08;101302.97;7410664;19;1669;-86
2022/10/31 03:48:10;;;;;;;;;;;;;;;21.37;63.80;101310.66;7413382;19;1865;-86
2022/10/31 03:50:41;;;;;;;;;;;;;;;21.41;63.80;101318.28;7414084;19;1770;-85
2022/10/31 03:53:13;;;;;;;;;;;;;;;21.35;64.15;101299.16;7413930;19;1019;-85
2022/10/31 03:55:43;;;;;;;;;;;;;;;21.32;64.08;101308.34;7414172;19;1545;-84
2022/10/31 03:58:14;;;;;;;;;;;;;;;21.32;63.77;101313.72;7412079;19;1410;-85
2022/10/31 04:00:45;;;;;;;;;;;;;;;21.27;62.44;101307.94;7409674;19;1568;-84
2022/10/31 04:03:18;;;;;;;;;;;;;;;21.23;63.72;101303.81;7409109;19;1551;-86
2022/10/31 04:05:48;;;;;;;;;;;;;;;21.19;63.83;101313.97;7408342;19;1572;-84
2022/10/31 04:08:19;;;;;;;;;;;;;;;21.21;63.79;101311.16;7408898;19;1835;-84
2022/10/31 04:10:49;;;;;;;;;;;;;;;21.19;63.59;101310.44;7410103;19;1658;-85
2022/10/31 04:13:20;;;;;;;;;;;;;;;21.15;63.75;101314.38;7410172;19;1467;-85
2022/10/31 04:15:49;;;;;;;;;;;;;;;21.17;63.91;101313.28;7410761;19;1578;-89
2022/10/31 04:18:20;;;;;;;;;;;;;;;21.22;63.72;101339.75;7408463;19;1471;-83
2022/10/31 04:20:49;;;;;;;;;;;;;;;21.15;63.71;101338.56;7409248;19;1790;-88
2022/10/31 04:23:21;;;;;;;;;;;;;;;21.09;63.65;101328.38;7410996;19;1601;-87
2022/10/31 04:25:49;;;;;;;;;;;;;;;21.09;64.23;101342.69;7410342;19;1702;-87
2022/10/31 04:28:17;;;;;;;;;;;;;;;20.99;64.26;101336.38;7405913;19;1837;-87
2022/10/31 04:30:45;;;;;;;;;;;;;;;20.93;64.66;101334.25;7410276;19;1478;-86
2022/10/31 04:33:14;;;;;;;;;;;;;;;20.93;64.53;101348.56;7409998;19;1688;-87
2022/10/31 04:35:45;;;;;;;;;;;;;;;21.01;65.58;101347.91;7408274;19;1659;-87
2022/10/31 04:38:13;;;;;;;;;;;;;;;20.97;66.20;101341.94;7408621;19;1778;-86
2022/10/31 04:40:41;;;;;;;;;;;;;;;20.91;67.01;101341.59;7409036;19;1569;-87
2022/10/31 04:43:10;;;;;;;;;;;;;;;20.92;67.20;101351.38;7403438;19;1399;-87
2022/10/31 04:45:38;;;;;;;;;;;;;;;20.88;67.72;101337.34;7408310;19;1065;-88
2022/10/31 04:48:06;;;;;;;;;;;;;;;20.75;69.52;101337.56;7407794;19;1471;-88
2022/10/31 04:50:35;;;;;;;;;;;;;;;20.59;69.08;101343.41;7406022;19;1837;-88
2022/10/31 04:53:05;;;;;;;;;;;;;;;20.56;70.52;101358.91;7408631;19;1572;-87
2022/10/31 04:55:37;;;;;;;;;;;;;;;20.61;69.18;101362.94;7406718;19;1451;-88
2022/10/31 04:58:05;;;;;;;;;;;;;;;20.68;69.97;101357.88;7408900;19;1417;-89
2022/10/31 05:00:33;;;;;;;;;;;;;;;20.68;70.17;101357.88;7408164;19;1603;-89
2022/10/31 05:03:02;;;;;;;;;;;;;;;20.63;69.05;101360.97;7405027;19;1395;-90
2022/10/31 05:05:32;;;;;;;;;;;;;;;20.64;70.29;101373.41;7404585;19;1581;-89
2022/10/31 05:08:01;;;;;;;;;;;;;;;20.57;68.49;101361.47;7408745;19;1629;-88
2022/10/31 05:10:33;;;;;;;;;;;;;;;20.52;69.18;101382.50;7407059;19;1847;-88
2022/10/31 05:13:02;;;;;;;;;;;;;;;20.53;70.85;101369.91;7411780;19;1237;-88
2022/10/31 05:15:31;;;;;;;;;;;;;;;20.49;69.95;101369.31;7408840;19;1382;-88
2022/10/31 05:17:59;;;;;;;;;;;;;;;20.54;69.23;101371.63;7407061;19;1700;-88
2022/10/31 05:20:28;;;;;;;;;;;;;;;20.54;71.61;101377.84;7408278;19;1205;-88
2022/10/31 05:22:57;;;;;;;;;;;;;;;20.51;74.66;101375.41;7405581;19;1710;-88
2022/10/31 05:25:26;;;;;;;;;;;;;;;20.59;69.10;101375.66;7404577;19;1416;-88
2022/10/31 05:27:58;;;;;;;;;;;;;;;20.70;70.33;101366.66;7408294;19;1335;-87
2022/10/31 05:30:30;;;;;;;;;;;;;;;20.76;70.24;101381.41;7406016;19;1891;-87
2022/10/31 05:32:58;;;;;;;;;;;;;;;20.81;68.09;101381.84;7405632;19;1694;-88
2022/10/31 05:35:27;;;;;;;;;;;;;;;20.80;68.42;101366.72;7404704;19;1454;-85
2022/10/31 05:37:57;;;;;;;;;;;;;;;20.85;68.26;101383.31;7409597;19;1233;-87
2022/10/31 05:40:26;;;;;;;;;;;;;;;20.90;68.17;101393.66;7405694;19;1373;-87
2022/10/31 05:43:08;;;;;;;;;;;;;;;20.86;72.44;101388.53;7408384;19;1404;-88
2022/10/31 05:45:39;;;;;;;;;;;;;;;20.88;67.13;101380.34;7405181;19;1498;-86
2022/10/31 05:48:07;;;;;;;;;;;;;;;20.91;67.42;101395.34;7405106;19;1491;-86
2022/10/31 05:50:36;;;;;;;;;;;;;;;20.94;67.42;101385.19;7404328;19;1854;-87
2022/10/31 05:53:06;;;;;;;;;;;;;;;20.98;68.86;101401.91;7405593;19;1581;-86
2022/10/31 05:55:34;;;;;;;;;;;;;;;20.95;66.91;101396.78;7405423;19;1474;-85
2022/10/31 05:58:03;;;;;;;;;;;;;;;20.95;66.89;101403.03;7404906;19;1439;-87
2022/10/31 06:00:34;;;;;;;;;;;;;;;21.00;67.00;101391.88;7407869;19;1471;-88
2022/10/31 06:03:09;;;;;;;;;;;;;;;21.05;65.67;101412.00;7409671;19;1533;-86
2022/10/31 06:05:38;;;;;;;;;;;;;;;21.06;65.02;101394.88;7408793;19;1764;-88
2022/10/31 06:08:07;;;;;;;;;;;;;;;21.07;65.36;101403.81;7409978;19;1632;-87
2022/10/31 06:10:37;;;;;;;;;;;;;;;21.08;65.39;101401.97;7409507;19;1813;-86
2022/10/31 06:13:06;;;;;;;;;;;;;;;21.03;65.33;101389.78;7405941;19;1688;-87
2022/10/31 06:15:35;;;;;;;;;;;;;;;21.06;65.07;101405.63;7406075;19;1074;-87
2022/10/31 06:18:08;;;;;;;;;;;;;;;21.18;64.09;101414.47;7411748;19;1813;-87
2022/10/31 06:20:36;;;;;;;;;;;;;;;21.11;64.45;101424.09;7408838;19;1632;-87
2022/10/31 06:23:05;;;;;;;;;;;;;;;21.14;64.77;101409.50;7409596;19;1371;-87
2022/10/31 06:25:35;;;;;;;;;;;;;;;21.11;64.54;101418.69;7409951;19;1619;-88
2022/10/31 06:28:03;;;;;;;;;;;;;;;21.15;65.30;101413.88;7408920;19;1600;-86
2022/10/31 06:30:31;;;;;;;;;;;;;;;21.12;65.07;101430.31;7408090;19;1837;-85
2022/10/31 06:33:04;;;;;;;;;;;;;;;21.16;66.52;101416.44;7410195;19;1369;-86
2022/10/31 06:35:36;;;;;;;;;;;;;;;21.11;64.57;101424.09;7412883;19;1644;-86
2022/10/31 06:38:04;;;;;;;;;;;;;;;21.08;66.71;101445.00;7412932;19;1567;-86
2022/10/31 06:40:33;;;;;;;;;;;;;;;21.02;65.57;101452.59;7415633;19;1648;-85
2022/10/31 06:43:02;;;;;;;;;;;;;;;21.12;66.03;101446.44;7408913;19;1510;-86
2022/10/31 06:45:31;;;;;;;;;;;;;;;21.06;65.83;101432.53;7410062;19;1389;-87
2022/10/31 06:47:59;;;;;;;;;;;;;;;21.05;67.22;101414.69;7408597;19;1640;-84
2022/10/31 06:50:28;;;;;;;;;;;;;;;21.11;66.44;101437.53;7409906;19;1864;-86
2022/10/31 06:53:00;;;;;;;;;;;;;;;21.07;65.42;101433.41;7402478;19;1241;-87
2022/10/31 06:55:30;;;;;;;;;;;;;;;21.08;67.30;101428.88;7407781;19;1601;-85
2022/10/31 06:57:59;;;;;;;;;;;;;;;21.09;67.37;101441.31;7406877;19;1338;-85
2022/10/31 07:00:29;;;;;;;;;;;;;;;21.10;65.21;101421.53;7413261;19;1478;-85
2022/10/31 07:02:58;;;;;;;;;;;;;;;21.14;65.25;101428.34;7410413;19;1673;-85
2022/10/31 07:05:27;;;;;;;;;;;;;;;21.15;65.12;101433.59;7413373;19;1251;-85
2022/10/31 07:07:56;;;;;;;;;;;;;;;21.18;65.97;101416.31;7409660;19;1331;-85
2022/10/31 07:10:28;;;;;;;;;;;;;;;21.12;66.55;101436.53;7407739;19;1878;-85
2022/10/31 07:12:56;;;;;;;;;;;;;;;21.19;66.42;101439.56;7409900;19;1527;-85
2022/10/31 07:15:25;;;;;;;;;;;;;;;21.10;66.49;101433.13;7412677;19;1399;-84
2022/10/31 07:17:53;;;;;;;;;;;;;;;21.13;66.76;101437.38;7411381;19;1426;-85
2022/10/31 07:20:22;;;;;;;;;;;;;;;21.14;66.36;101444.47;7410664;19;1455;-84
2022/10/31 07:22:50;;;;;;;;;;;;;;;21.06;66.03;101427.16;7409318;19;1268;-85
2022/10/31 07:25:18;;;;;;;;;;;;;;;21.07;66.33;101430.72;7410964;19;1238;-84
2022/10/31 07:27:49;;;;;;;;;;;;;;;21.14;66.09;101436.41;7410860;19;1331;-85
2022/10/31 07:30:18;;;;;;;;;;;;;;;21.09;66.05;101401.84;7407026;19;1838;-87
2022/10/31 07:32:47;;;;;;;;;;;;;;;21.13;65.90;101423.94;7413901;19;1382;-85
2022/10/31 07:35:16;;;;;;;;;;;;;;;21.18;65.43;101422.53;7408293;19;1483;-85
2022/10/31 07:37:44;;;;;;;;;;;;;;;21.16;65.30;101405.69;7413558;19;1641;-84
2022/10/31 07:40:13;;;;;;;;;;;;;;;21.26;65.53;101432.63;7416517;19;1499;-86
2022/10/31 07:42:42;;;;;;;;;;;;;;;21.27;65.37;101431.66;7411164;19;1253;-85
2022/10/31 07:45:14;;;;;;;;;;;;;;;21.28;65.25;101419.91;7412284;19;1284;-84
2022/10/31 07:47:43;;;;;;;;;;;;;;;21.30;65.25;101428.69;7410279;19;1417;-85
2022/10/31 07:50:12;;;;;;;;;;;;;;;21.33;65.21;101428.44;7411721;19;1843;-85
2022/10/31 07:52:41;;;;;;;;;;;;;;;21.35;65.26;101453.38;7412817;19;1379;-85
2022/10/31 07:55:10;;;;;;;;;;;;;;;21.33;65.14;101428.44;7410755;19;1366;-85
2022/10/31 07:57:39;;;;;;;;;;;;;;;21.42;64.65;101432.97;7407872;19;1342;-85
2022/10/31 08:00:08;;;;;;;;;;;;;;;21.43;64.69;101437.44;7413758;19;1624;-85
2022/10/31 08:02:39;;;;;;;;;;;;;;;21.44;64.98;101444.50;7409789;19;1637;-85
2022/10/31 08:05:08;;;;;;;;;;;;;;;21.43;64.23;101448.19;7409185;19;1632;-85
2022/10/31 08:07:38;;;;;;;;;;;;;;;21.46;64.21;101444.38;7411876;19;1597;-85
2022/10/31 08:10:07;;;;;;;;;;;;;;;21.44;64.53;101440.97;7407731;19;1810;-85
2022/10/31 08:12:35;;;;;;;;;;;;;;;21.47;63.78;101437.13;7410537;19;1287;-85
2022/10/31 08:15:04;;;;;;;;;;;;;;;21.44;63.19;101438.28;7412294;19;1019;-84
2022/10/31 08:17:32;;;;;;;;;;;;;;;21.43;63.38;101423.13;7405899;19;1766;-84
2022/10/31 08:20:03;;;;;;;;;;;;;;;21.43;63.07;101440.13;7410170;19;1639;-85
2022/10/31 08:22:32;;;;;;;;;;;;;;;21.41;62.63;101431.28;7410503;19;1611;-85
2022/10/31 08:25:01;;;;;;;;;;;;;;;21.42;62.92;101424.91;7407761;19;1660;-85
2022/10/31 08:27:29;;;;;;;;;;;;;;;21.43;63.34;101450.03;7406369;19;1447;-85
2022/10/31 08:29:58;;;;;;;;;;;;;;;21.33;64.10;101431.13;7406671;19;1876;-84
2022/10/31 08:32:26;;;;;;;;;;;;;;;21.35;64.35;101425.63;7411112;19;1146;-84
2022/10/31 08:34:54;;;;;;;;;;;;;;;21.39;63.25;101414.44;7407575;19;1511;-84
2022/10/31 08:37:25;;;;;;;;;;;;;;;21.41;63.41;101425.91;7411420;19;1761;-85
2022/10/31 08:39:53;;;;;;;;;;;;;;;21.43;63.26;101423.13;7408246;19;1331;-84
2022/10/31 08:42:22;;;;;;;;;;;;;;;21.45;63.17;101430.06;7406450;19;1549;-85
2022/10/31 08:44:50;;;;;;;;;;;;;;;21.45;63.12;101421.16;7408530;19;1627;-85
2022/10/31 08:47:18;;;;;;;;;;;;;;;21.50;63.19;101445.81;7407081;19;1529;-85
2022/10/31 08:49:48;;;;;;;;;;;;;;;21.53;63.43;101440.16;7408081;19;1850;-85
2022/10/31 08:52:17;;;;;;;;;;;;;;;21.42;63.70;101414.16;7409495;19;1428;-85
2022/10/31 08:54:49;;;;;;;;;;;;;;;21.40;64.01;101440.34;7407326;19;1675;-85
2022/10/31 08:57:17;;;;;;;;;;;;;;;21.41;63.74;101423.22;7408076;19;1636;-85
2022/10/31 08:59:45;;;;;;;;;;;;;;;21.38;63.95;101436.09;7407509;19;1813;-85
2022/10/31 09:02:14;;;;;;;;;;;;;;;21.34;64.03;101429.28;7405795;19;1568;-85
2022/10/31 09:04:42;;;;;;;;;;;;;;;21.39;64.08;101427.88;7407358;19;1635;-86
2022/10/31 09:07:10;;;;;;;;;;;;;;;21.38;64.12;101430.72;7404782;19;1560;-85
2022/10/31 09:09:38;;;;;;;;;;;;;;;21.36;64.11;101448.81;7404714;19;1352;-85
2022/10/31 09:12:09;;;;;;;;;;;;;;;21.32;64.27;101432.09;7404108;19;1841;-85
2022/10/31 09:14:38;;;;;;;;;;;;;;;21.34;64.36;101422.06;7410053;19;1060;-85
2022/10/31 09:17:07;;;;;;;;;;;;;;;21.42;64.31;101435.69;7407396;19;1390;-85
2022/10/31 09:19:36;;;;;;;;;;;;;;;21.38;64.39;101418.09;7407439;19;1671;-85
2022/10/31 09:22:05;;;;;;;;;;;;;;;21.33;64.81;101439.19;7404737;19;1574;-85
2022/10/31 09:24:33;;;;;;;;;;;;;;;21.33;64.55;101414.97;7407183;19;1365;-85
2022/10/31 09:27:01;;;;;;;;;;;;;;;21.29;64.77;101426.13;7409004;19;1530;-84
2022/10/31 09:29:32;;;;;;;;;;;;;;;21.32;64.53;101434.78;7407133;19;1376;-84
2022/10/31 09:32:01;;;;;;;;;;;;;;;21.31;64.77;101435.78;7407227;19;1822;-85
2022/10/31 09:34:29;;;;;;;;;;;;;;;21.32;64.81;101439.31;7410019;19;988;-85
2022/10/31 09:36:57;;;;;;;;;;;;;;;21.31;64.91;101432.22;7408020;19;1785;-85
2022/10/31 09:39:25;;;;;;;;;;;;;;;21.31;64.90;101430.41;7406794;19;1781;-86
2022/10/31 09:42:00;;;;;;;;;;;;;;;21.31;64.96;101414.28;7407105;19;1755;-85
2022/10/31 09:44:36;;;;;;;;;;;;;;;21.30;64.77;101423.31;7406844;19;1502;-85
2022/10/31 09:47:08;;;;;;;;;;;;;;;21.31;65.28;101408.00;7408719;19;1536;-85
2022/10/31 09:49:52;;;;;;;;;;;;;;;21.31;64.81;101418.78;7407149;19;1497;-85
2022/10/31 09:52:23;;;;;;;;;;;;;;;21.27;65.07;101415.53;7404359;19;1834;-85
2022/10/31 09:54:54;;;;;;;;;;;;;;;21.26;65.08;101421.88;7407006;19;1540;-85
2022/10/31 09:57:27;;;;;;;;;;;;;;;21.24;64.80;101408.56;7406825;19;1580;-85
2022/10/31 09:59:58;;;;;;;;;;;;;;;21.28;65.02;101421.75;7407837;19;1627;-85
2022/10/31 10:02:29;;;;;;;;;;;;;;;21.27;65.22;101412.84;7406463;19;1513;-84
2022/10/31 10:05:00;;;;;;;;;;;;;;;21.25;65.07;101414.81;7408111;19;1624;-85
2022/10/31 10:07:38;;;;;;;;;;;;;;;21.26;64.79;101420.03;7407213;19;1568;-86
2022/10/31 10:10:15;;;;;;;;;;;;;;;21.28;64.70;101406.44;7407680;19;1841;-85
2022/10/31 10:12:51;;;;;;;;;;;;;;;21.23;65.24;101390.72;7408375;19;1367;-86
2022/10/31 10:15:40;;;;;;;;;;;;;;;21.24;65.54;101405.03;7407199;19;1059;-85
2022/10/31 10:18:15;;;;;;;;;;;;;;;21.23;65.23;101387.19;7407849;19;1745;-86
2022/10/31 10:20:46;;;;;;;;;;;;;;;21.28;65.41;101408.28;7407746;19;1628;-85
2022/10/31 10:23:24;;;;;;;;;;;;;;;21.22;65.05;101398.94;7406290;19;1785;-85
2022/10/31 10:25:55;;;;;;;;;;;;;;;21.23;65.31;101390.72;7406212;19;1728;-85
2022/10/31 10:28:25;;;;;;;;;;;;;;;21.27;64.66;101396.69;7408023;19;1553;-85
2022/10/31 10:30:57;;;;;;;;;;;;;;;21.29;64.77;101383.97;7406256;19;1855;-85
2022/10/31 10:33:33;;;;;;;;;;;;;;;21.29;64.78;101389.34;7407253;19;1620;-85
2022/10/31 10:36:05;;;;;;;;;;;;;;;21.28;65.25;101403.75;7404854;19;1380;-84
2022/10/31 10:38:37;;;;;;;;;;;;;;;21.22;65.11;101402.47;7405860;19;1659;-85
2022/10/31 10:41:20;;;;;;;;;;;;;;;21.23;64.97;101390.72;7407016;19;1647;-86
2022/10/31 10:43:45;;;;;;;;;;;;;;;21.21;65.42;101387.31;7405030;19;1573;-85
2022/10/31 10:49:18;;;;;;;;;;;;;;;21.24;65.13;101370.06;7406936;19;1659;-85
2022/10/31 10:51:47;;;;;;;;;;;;;;;21.26;64.71;101382.38;7402537;19;1847;-85
2022/10/31 10:54:30;;;;;;;;;;;;;;;21.24;65.08;101380.81;7405702;19;1699;-85
2022/10/31 10:57:02;;;;;;;;;;;;;;;21.26;65.24;101379.69;7401283;19;1647;-85
2022/10/31 10:59:31;;;;;;;;;;;;;;;21.25;65.06;101378.00;7406560;19;1517;-85
2022/10/31 11:02:01;;;;;;;;;;;;;;;21.28;64.86;101371.47;7405187;19;1723;-84
2022/10/31 11:04:35;;;;;;;;;;;;;;;21.29;64.73;101378.59;7406843;19;1014;-84
2022/10/31 11:07:04;;;;;;;;;;;;;;;21.30;65.00;101372.19;7405160;19;1394;-85
2022/10/31 11:09:33;;;;;;;;;;;;;;;21.28;64.80;101362.56;7407307;19;1781;-86
2022/10/31 11:12:01;;;;;;;;;;;;;;;21.29;64.72;101378.59;7405850;19;1845;-85
2022/10/31 11:14:30;;;;;;;;;;;;;;;21.32;64.64;101366.69;7406537;19;1680;-85
2022/10/31 11:17:11;;;;;;;;;;;;;;;21.31;64.75;101354.22;7407743;19;1618;-86
2022/10/31 11:19:42;;;;;;;;;;;;;;;21.31;64.83;101359.59;7404166;19;1360;-85
2022/10/31 11:22:16;;;;;;;;;;;;;;;21.34;64.81;101365.56;7405836;19;1631;-85
2022/10/31 11:24:45;;;;;;;;;;;;;;;21.38;64.57;101358.91;7404506;19;1533;-85
2022/10/31 11:27:18;;;;;;;;;;;;;;;21.34;64.80;101348.56;7402875;19;1545;-85
2022/10/31 11:29:46;;;;;;;;;;;;;;;21.34;64.71;101344.03;7403250;19;1616;-86
2022/10/31 11:32:20;;;;;;;;;;;;;;;21.35;64.33;101352.97;7401512;19;1819;-85
2022/10/31 11:34:53;;;;;;;;;;;;;;;21.42;64.51;101363.03;7404946;19;1432;-85
2022/10/31 11:37:22;;;;;;;;;;;;;;;21.42;64.55;101356.81;7401252;19;1726;-85
2022/10/31 11:39:53;;;;;;;;;;;;;;;21.40;64.39;101339.94;7404508;19;1688;-85
2022/10/31 11:42:24;;;;;;;;;;;;;;;21.42;64.69;101346.03;7404533;19;1382;-86
2022/10/31 11:44:55;;;;;;;;;;;;;;;21.38;64.36;101345.47;7404925;19;1421;-85
2022/10/31 11:47:28;;;;;;;;;;;;;;;21.44;63.57;101323.41;7411423;19;1393;-86
2022/10/31 11:50:00;;;;;;;;;;;;;;;21.48;63.64;101333.91;7411032;19;1659;-86
2022/10/31 11:52:29;;;;;;;;;;;;;;;21.48;63.94;101328.53;7405782;19;1853;-86
2022/10/31 11:55:00;;;;;;;;;;;;;;;21.52;63.56;101324.56;7409149;19;1397;-85
2022/10/31 11:57:31;;;;;;;;;;;;;;;21.50;64.01;101315.78;7408456;19;1573;-85
2022/10/31 12:00:00;;;;;;;;;;;;;;;21.49;64.17;101325.72;7411930;19;1445;-85
2022/10/31 12:02:30;;;;;;;;;;;;;;;21.53;63.95;101334.38;7407452;19;1715;-85
2022/10/31 12:05:10;;;;;;;;;;;;;;;21.50;64.01;101321.16;7413829;19;1236;-84
2022/10/31 12:07:40;;;;;;;;;;;;;;;21.54;63.75;101319.91;7410774;19;1409;-86
2022/10/31 12:10:12;;;;;;;;;;;;;;;21.47;63.57;101321.44;7412844;19;1620;-86
2022/10/31 12:12:55;;;;;;;;;;;;;;;21.50;63.62;101321.16;7408497;19;1842;-86
2022/10/31 12:15:41;;;;;;;;;;;;;;;21.51;63.64;101314.81;7412156;19;1586;-86
2022/10/31 12:18:20;;;;;;;;;;;;;;;21.49;63.61;101319.44;7411388;19;1675;-86
2022/10/31 12:20:57;;;;;;;;;;;;;;;21.49;63.83;101316.75;7410176;19;1660;-86
2022/10/31 12:23:31;;;;;;;;;;;;;;;21.45;63.45;101319.75;7411027;19;1491;-86
2022/10/31 12:26:05;;;;;;;;;;;;;;;21.51;63.27;101310.28;7407628;19;1628;-86
2022/10/31 12:28:42;;;;;;;;;;;;;;;21.60;63.59;101316.66;7409346;19;1671;-86
2022/10/31 12:31:18;;;;;;;;;;;;;;;21.59;63.20;101320.34;7409667;19;1858;-86
2022/10/31 12:33:51;;;;;;;;;;;;;;;21.55;63.36;101316.25;7412298;19;1473;-86
2022/10/31 12:36:32;;;;;;;;;;;;;;;21.57;63.32;101323.16;7410800;19;1553;-86
2022/10/31 12:39:16;;;;;;;;;;;;;;;21.57;63.46;101317.78;7410976;19;1529;-86
2022/10/31 12:41:49;;;;;;;;;;;;;;;21.51;63.71;101312.97;7410716;19;1380;-85
2022/10/31 12:44:30;;;;;;;;;;;;;;;21.47;63.42;101316.06;7409830;19;1652;-87
2022/10/31 12:47:08;;;;;;;;;;;;;;;21.33;64.29;101303.81;7409598;19;1526;-85
2022/10/31 12:49:43;;;;;;;;;;;;;;;21.30;64.31;101320.25;7406312;19;1398;-85
2022/10/31 12:52:22;;;;;;;;;;;;;;;21.22;64.61;101319.06;7408820;19;1854;-85
2022/10/31 12:55:05;;;;;;;;;;;;;;;21.18;64.39;101317.66;7407181;19;1649;-85
2022/10/31 12:57:36;;;;;;;;;;;;;;;21.24;64.29;101314.41;7409220;19;1479;-86
2022/10/31 13:00:05;;;;;;;;;;;;;;;21.26;64.61;101307.06;7411700;19;1524;-86
2022/10/31 13:02:38;;;;;;;;;;;;;;;21.26;63.40;101320.50;7406045;19;1690;-86
2022/10/31 13:05:13;;;;;;;;;;;;;;;21.39;63.72;101317.59;7409546;19;1434;-86
2022/10/31 13:07:46;;;;;;;;;;;;;;;21.38;62.83;101340.06;7407851;19;1471;-85
2022/10/31 13:10:19;;;;;;;;;;;;;;;21.24;63.42;101332.38;7406180;19;1456;-84